createdAt,value
2019-03-17T00:02:47.678Z,9.20
2019-03-17T00:07:53.020Z,9.20
2019-03-17T00:12:58.861Z,9.20
2019-03-17T00:18:04.277Z,9.10
2019-03-17T00:23:09.515Z,9.10
2019-03-17T00:28:15.372Z,9.00
2019-03-17T00:33:20.952Z,9.00
2019-03-17T00:38:26.419Z,9.00
2019-03-17T00:43:31.611Z,9.00
2019-03-17T00:48:36.816Z,8.90
2019-03-17T00:53:42.333Z,8.90
2019-03-17T00:58:47.970Z,8.90
2019-03-17T01:03:53.612Z,8.90
2019-03-17T01:08:59.292Z,8.80
2019-03-17T01:14:05.058Z,8.80
2019-03-17T01:19:10.629Z,8.80
2019-03-17T01:24:16.029Z,8.70
2019-03-17T01:29:21.665Z,8.70
2019-03-17T01:34:27.204Z,8.60
2019-03-17T01:39:32.725Z,8.60
2019-03-17T01:44:38.349Z,8.50
2019-03-17T01:49:43.948Z,8.40
2019-03-17T01:54:49.493Z,8.40
2019-03-17T01:59:55.266Z,8.20
2019-03-17T02:05:00.858Z,8.20
2019-03-17T02:10:06.869Z,8.20
2019-03-17T02:15:12.585Z,8.20
2019-03-17T02:20:17.909Z,8.10
2019-03-17T02:25:23.716Z,8.10
2019-03-17T02:30:29.373Z,8.00
2019-03-17T02:35:39.505Z,7.90
2019-03-17T02:40:42.076Z,7.90
2019-03-17T02:45:47.724Z,7.90
2019-03-17T02:50:53.275Z,7.80
2019-03-17T02:55:58.630Z,7.90
2019-03-17T03:01:04.243Z,7.80
2019-03-17T03:06:09.735Z,7.80
2019-03-17T03:11:15.298Z,7.80
2019-03-17T03:16:20.797Z,7.70
2019-03-17T03:21:26.466Z,7.60
2019-03-17T03:26:32.038Z,7.70
2019-03-17T03:31:37.570Z,7.60
2019-03-17T03:36:43.155Z,7.60
2019-03-17T03:41:48.804Z,7.50
2019-03-17T03:46:54.382Z,7.40
2019-03-17T03:51:59.973Z,7.40
2019-03-17T03:57:05.595Z,7.40
2019-03-17T04:02:11.361Z,7.40
2019-03-17T04:07:16.837Z,7.30
2019-03-17T04:12:22.280Z,7.20
2019-03-17T04:17:27.781Z,7.20
2019-03-17T04:22:33.522Z,7.20
2019-03-17T04:27:39.081Z,7.20
2019-03-17T04:32:44.419Z,7.10
2019-03-17T04:37:49.903Z,7.00
2019-03-17T04:42:55.503Z,7.10
2019-03-17T04:48:01.027Z,7.10
2019-03-17T04:53:06.541Z,7.00
2019-03-17T04:58:11.969Z,7.00
2019-03-17T05:03:18.571Z,6.90
2019-03-17T05:08:24.017Z,7.00
2019-03-17T05:13:29.573Z,7.10
2019-03-17T05:18:35.230Z,6.90
2019-03-17T05:23:40.827Z,6.90
2019-03-17T05:28:46.266Z,6.90
2019-03-17T05:33:51.818Z,6.80
2019-03-17T05:38:57.398Z,6.80
2019-03-17T05:44:02.571Z,6.80
2019-03-17T05:49:08.149Z,6.70
2019-03-17T05:54:13.738Z,6.70
2019-03-17T05:59:19.777Z,6.70
2019-03-17T06:04:25.124Z,6.70
2019-03-17T06:09:30.714Z,6.60
2019-03-17T06:14:36.232Z,6.60
2019-03-17T06:19:41.724Z,6.50
2019-03-17T06:24:47.262Z,6.40
2019-03-17T06:29:53.149Z,6.40
2019-03-17T06:34:58.715Z,6.40
2019-03-17T06:40:04.440Z,6.40
2019-03-17T06:45:10.450Z,6.30
2019-03-17T06:50:15.981Z,6.30
2019-03-17T06:55:21.482Z,6.30
2019-03-17T07:00:26.941Z,6.30
2019-03-17T07:05:32.417Z,6.30
2019-03-17T07:10:38.069Z,6.20
2019-03-17T07:15:43.533Z,6.20
2019-03-17T07:20:49.105Z,6.20
2019-03-17T07:25:54.556Z,6.20
2019-03-17T07:30:59.966Z,6.30
2019-03-17T07:36:05.958Z,6.40
2019-03-17T07:41:11.602Z,6.40
2019-03-17T07:46:17.146Z,6.50
2019-03-17T07:51:22.657Z,6.50
2019-03-17T07:56:28.206Z,6.60
2019-03-17T08:01:33.866Z,6.60
2019-03-17T08:06:39.468Z,6.60
2019-03-17T08:11:45.240Z,6.80
2019-03-17T08:16:50.819Z,6.90
2019-03-17T08:21:56.410Z,7.00
2019-03-17T08:27:02.061Z,7.20
2019-03-17T08:32:07.760Z,7.30
2019-03-17T08:37:13.297Z,7.30
2019-03-17T08:42:19.007Z,7.40
2019-03-17T08:47:24.799Z,7.40
2019-03-17T08:52:30.357Z,7.40
2019-03-17T08:57:35.966Z,7.40
2019-03-17T09:02:41.574Z,7.50
2019-03-17T09:07:48.524Z,7.60
2019-03-17T09:12:54.222Z,7.70
2019-03-17T09:17:59.905Z,7.70
2019-03-17T09:23:05.433Z,7.90
2019-03-17T09:28:11.012Z,8.20
2019-03-17T09:33:16.614Z,8.30
2019-03-17T09:38:22.298Z,8.20
2019-03-17T09:43:27.658Z,8.40
2019-03-17T09:48:33.476Z,8.70
2019-03-17T09:53:39.091Z,8.80
2019-03-17T09:58:45.756Z,8.90
2019-03-17T10:03:51.375Z,8.80
2019-03-17T10:09:00.256Z,8.70
2019-03-17T10:14:04.250Z,8.60
2019-03-17T10:19:09.843Z,8.50
2019-03-17T10:24:15.362Z,8.40
2019-03-17T10:29:20.683Z,8.50
2019-03-17T10:34:26.283Z,8.50
2019-03-17T10:39:31.886Z,8.40
2019-03-17T10:44:37.506Z,8.40
2019-03-17T10:49:43.207Z,8.50
2019-03-17T10:54:48.914Z,8.90
2019-03-17T10:59:54.338Z,9.00
2019-03-17T11:05:00.045Z,8.80
2019-03-17T11:10:06.121Z,8.90
2019-03-17T11:15:12.899Z,9.40
2019-03-17T11:20:18.725Z,9.60
2019-03-17T11:25:24.592Z,9.60
2019-03-17T11:30:30.335Z,9.40
2019-03-17T11:35:35.997Z,9.40
2019-03-17T11:40:42.003Z,9.60
2019-03-17T11:45:47.612Z,9.80
2019-03-17T11:50:53.167Z,9.70
2019-03-17T11:55:58.605Z,9.50
2019-03-17T12:01:05.209Z,9.60
2019-03-17T12:06:10.912Z,9.90
2019-03-17T12:11:16.382Z,10.10
2019-03-17T12:16:22.112Z,10.40
2019-03-17T12:21:27.718Z,10.30
2019-03-17T12:26:33.180Z,10.20
2019-03-17T12:31:38.980Z,10.10
2019-03-17T12:36:44.636Z,9.80
2019-03-17T12:41:50.119Z,9.70
2019-03-17T12:46:55.587Z,9.80
2019-03-17T12:52:00.990Z,9.90
2019-03-17T12:57:06.502Z,9.80
2019-03-17T13:02:11.744Z,9.60
2019-03-17T13:07:17.046Z,9.70
2019-03-17T13:12:23.105Z,9.80
2019-03-17T13:17:28.640Z,9.80
2019-03-17T13:22:34.059Z,9.80
2019-03-17T13:27:39.545Z,9.70
2019-03-17T13:32:45.364Z,9.90
2019-03-17T13:37:50.886Z,10.00
2019-03-17T13:42:56.459Z,10.20
2019-03-17T13:48:02.213Z,10.50
2019-03-17T13:53:07.492Z,10.50
2019-03-17T13:58:12.917Z,10.60
2019-03-17T14:03:18.523Z,10.40
2019-03-17T14:08:24.100Z,10.30
2019-03-17T14:13:29.725Z,10.10
2019-03-17T14:18:35.230Z,10.00
2019-03-17T14:23:40.728Z,9.60
2019-03-17T14:28:46.307Z,9.60
2019-03-17T14:33:52.177Z,9.60
2019-03-17T14:38:57.814Z,9.50
2019-03-17T14:44:03.461Z,9.40
2019-03-17T14:49:09.206Z,9.40
2019-03-17T14:54:15.015Z,9.40
2019-03-17T14:59:20.645Z,9.50
2019-03-17T15:04:26.130Z,9.70
2019-03-17T15:09:31.601Z,10.10
2019-03-17T15:14:37.389Z,10.20
2019-03-17T15:19:43.044Z,10.10
2019-03-17T15:24:48.730Z,10.00
2019-03-17T15:29:54.346Z,9.60
2019-03-17T15:34:59.953Z,9.20
2019-03-17T15:40:06.236Z,9.00
2019-03-17T15:45:13.585Z,8.90
2019-03-17T15:50:19.466Z,8.80
2019-03-17T15:55:25.189Z,8.40
2019-03-17T16:00:30.874Z,8.30
2019-03-17T16:05:36.608Z,8.20
2019-03-17T16:10:42.248Z,8.30
2019-03-17T16:15:47.969Z,8.40
2019-03-17T16:20:53.494Z,8.50
2019-03-17T16:25:59.078Z,8.40
2019-03-17T16:31:04.777Z,8.40
2019-03-17T16:36:10.479Z,8.40
2019-03-17T16:41:16.114Z,8.50
2019-03-17T16:46:21.747Z,8.50
2019-03-17T16:51:27.367Z,8.40
2019-03-17T16:56:33.213Z,8.40
2019-03-17T17:01:38.859Z,8.30
2019-03-17T17:06:44.379Z,8.40
2019-03-17T17:11:56.658Z,8.50
2019-03-17T17:16:57.411Z,8.70
2019-03-17T17:22:03.170Z,8.80
2019-03-17T17:27:08.826Z,8.80
2019-03-17T17:32:14.437Z,8.90
2019-03-17T17:37:19.983Z,8.90
2019-03-17T17:42:25.369Z,9.00
2019-03-17T17:47:30.902Z,8.90
2019-03-17T17:52:36.484Z,8.90
2019-03-17T17:57:41.984Z,8.80
2019-03-17T18:02:48.429Z,8.80
2019-03-17T18:07:53.924Z,8.80
2019-03-17T18:12:59.326Z,8.70
2019-03-17T18:18:04.949Z,8.70
2019-03-17T18:23:17.690Z,8.60
2019-03-17T18:28:17.717Z,8.70
2019-03-17T18:33:23.194Z,8.70
2019-03-17T18:38:28.721Z,8.80
2019-03-17T18:43:34.412Z,8.60
2019-03-17T18:48:40.014Z,8.50
2019-03-17T18:53:45.716Z,8.40
2019-03-17T18:58:51.351Z,8.40
2019-03-17T19:03:57.299Z,8.30
2019-03-17T19:09:03.030Z,8.30
2019-03-17T19:14:09.226Z,8.30
2019-03-17T19:19:14.904Z,8.20
2019-03-17T19:24:20.478Z,8.10
2019-03-17T19:29:26.374Z,8.10
2019-03-17T19:34:32.097Z,8.10
2019-03-17T19:39:37.682Z,8.10
2019-03-17T19:44:43.473Z,8.10
2019-03-17T19:49:49.160Z,8.10
2019-03-17T19:54:54.702Z,8.10
2019-03-17T20:00:00.463Z,8.10
2019-03-17T20:05:06.433Z,8.10
2019-03-17T20:10:13.744Z,8.10
2019-03-17T20:15:19.422Z,8.10
2019-03-17T20:20:25.271Z,8.10
2019-03-17T20:25:31.089Z,8.00
2019-03-17T20:30:36.813Z,8.00
2019-03-17T20:35:42.378Z,8.00
2019-03-17T20:40:47.758Z,8.00
2019-03-17T20:45:54.124Z,8.00
2019-03-17T20:51:00.102Z,7.90
2019-03-17T20:56:06.149Z,7.90
2019-03-17T21:01:11.923Z,7.90
2019-03-17T21:06:17.531Z,8.00
2019-03-17T21:11:23.067Z,7.90
2019-03-17T21:16:28.851Z,7.90
2019-03-17T21:21:34.543Z,7.90
2019-03-17T21:26:40.369Z,7.80
2019-03-17T21:31:45.734Z,7.80
2019-03-17T21:36:51.332Z,7.80
2019-03-17T21:41:57.168Z,7.80
2019-03-17T21:47:02.839Z,7.90
2019-03-17T21:52:08.609Z,7.90
2019-03-17T21:57:14.168Z,7.90
2019-03-17T22:02:19.858Z,7.90
2019-03-17T22:07:25.422Z,7.90
2019-03-17T22:12:30.945Z,7.90
2019-03-17T22:17:36.557Z,7.90
2019-03-17T22:22:42.109Z,7.90
2019-03-17T22:27:47.544Z,7.80
2019-03-17T22:32:54.711Z,7.90
2019-03-17T22:38:00.694Z,7.80
2019-03-17T22:43:06.376Z,7.70
2019-03-17T22:48:11.892Z,7.70
2019-03-17T22:53:17.451Z,7.70
2019-03-17T22:58:23.226Z,7.70
2019-03-17T23:03:28.687Z,7.70
2019-03-17T23:08:34.386Z,7.60
2019-03-17T23:13:40.067Z,7.60
2019-03-17T23:18:45.671Z,7.60
2019-03-17T23:23:51.390Z,7.60
2019-03-17T23:28:57.079Z,7.60
2019-03-17T23:34:02.779Z,7.60
2019-03-17T23:39:08.777Z,7.50
2019-03-17T23:44:14.316Z,7.50
2019-03-17T23:49:19.865Z,7.50
2019-03-17T23:54:25.438Z,7.50
2019-03-17T23:59:31.040Z,7.50
